Time;durP1;ratioP1;P1;durP2;ratioP2;P2;SDS_P1;SDS_P2;PMS_P1;PMS_P2;Temp;Humidity;BMP_temperature;BMP_pressure;BME280_temperature;BME280_humidity;BME280_pressure;Samples;Min_cycle;Max_cycle;Signal;HPM_P1;HPM_P2
2023/04/10 00:04:04;;;;;;;34.47;20.17;;;5.60;99.90;;;;;;10210267;29;20258;-81
2023/04/10 00:09:09;;;;;;;37.20;21.00;;;5.70;99.90;;;;;;10207993;29;20691;-82
2023/04/10 00:14:11;;;;;;;23.27;17.07;;;5.50;99.90;;;;;;10205816;29;20740;-81
2023/04/10 00:19:14;;;;;;;32.70;20.60;;;5.40;99.90;;;;;;10209758;29;20348;-81
2023/04/10 00:24:16;;;;;;;37.00;22.40;;;5.20;99.90;;;;;;10209600;29;20278;-81
2023/04/10 00:29:19;;;;;;;23.43;13.73;;;5.50;99.90;;;;;;10208843;29;20238;-81
2023/04/10 00:34:23;;;;;;;29.17;20.40;;;5.60;99.90;;;;;;10208822;29;20242;-81
2023/04/10 00:39:26;;;;;;;23.70;16.80;;;5.60;99.90;;;;;;10207996;29;20250;-81
2023/04/10 00:44:28;;;;;;;35.17;20.50;;;5.40;99.90;;;;;;10207740;29;20286;-81
2023/04/10 00:49:31;;;;;;;32.90;18.30;;;5.10;99.90;;;;;;10189214;29;20222;-81
2023/04/10 00:54:35;;;;;;;22.43;14.20;;;5.00;99.90;;;;;;10169691;29;20244;-81
2023/04/10 00:59:38;;;;;;;35.03;23.60;;;5.50;99.90;;;;;;10169551;29;20274;-81
2023/04/10 01:04:41;;;;;;;29.23;19.47;;;5.50;99.90;;;;;;10208174;29;20284;-81
2023/04/10 01:09:58;;;;;;;31.73;20.10;;;5.20;99.90;;;;;;10202699;29;20238;-81
2023/04/10 01:15:07;;;;;;;34.87;20.67;;;5.00;99.90;;;;;;10167356;29;20653;-81
2023/04/10 01:20:15;;;;;;;22.97;14.67;;;5.30;99.90;;;;;;10167596;29;20267;-81
2023/04/10 01:25:40;;;;;;;45.17;19.77;;;4.80;99.90;;;;;;10177383;29;20293;-81
2023/04/10 01:30:51;;;;;;;37.20;20.43;;;5.20;99.90;;;;;;10219281;29;20242;-81
2023/04/10 01:35:57;;;;;;;35.80;21.50;;;4.90;99.90;;;;;;10206145;29;20233;-81
2023/04/10 01:41:01;;;;;;;38.27;23.97;;;4.50;99.90;;;;;;10173001;29;20242;-81
2023/04/10 01:46:05;;;;;;;36.10;22.80;;;4.50;99.90;;;;;;10187119;29;20310;-81
2023/04/10 01:51:10;;;;;;;36.30;22.73;;;4.60;99.90;;;;;;10196707;29;20251;-82
2023/04/10 01:56:13;;;;;;;43.77;24.10;;;4.60;99.90;;;;;;10166350;29;20263;-81
2023/04/10 02:01:21;;;;;;;45.13;25.10;;;4.30;99.90;;;;;;10168813;29;20254;-81
2023/04/10 02:07:04;;;;;;;40.80;22.87;;;4.20;99.90;;;;;;10199801;29;20347;-81
2023/04/10 02:12:17;;;;;;;41.33;24.10;;;4.20;99.90;;;;;;10228131;29;20672;-81
2023/04/10 02:17:26;;;;;;;37.73;22.67;;;4.10;99.90;;;;;;10228748;29;20319;-81
2023/04/10 02:22:29;;;;;;;46.77;25.13;;;4.10;99.90;;;;;;10177629;29;20262;-81
2023/04/10 02:27:34;;;;;;;38.90;24.47;;;4.10;99.90;;;;;;10209704;29;20645;-82
2023/04/10 02:32:37;;;;;;;50.17;25.67;;;3.90;99.90;;;;;;10183301;29;20297;-81
2023/04/10 02:37:42;;;;;;;23.10;15.37;;;4.10;99.90;;;;;;10188407;29;20275;-81
2023/04/10 02:42:46;;;;;;;35.97;21.03;;;4.20;99.90;;;;;;10174265;29;20270;-81
2023/04/10 02:47:49;;;;;;;44.03;21.43;;;4.10;99.90;;;;;;10179543;29;20255;-81
2023/04/10 02:52:53;;;;;;;38.97;22.27;;;4.10;99.90;;;;;;10172463;29;20250;-81
2023/04/10 02:57:56;;;;;;;39.87;22.33;;;3.80;99.90;;;;;;10175956;29;20281;-81
2023/04/10 03:02:59;;;;;;;32.93;21.13;;;3.70;99.90;;;;;;10196098;29;20668;-81
2023/04/10 03:08:09;;;;;;;32.50;21.10;;;3.60;99.90;;;;;;10211069;29;20624;-81
2023/04/10 03:13:12;;;;;;;19.37;14.37;;;3.20;99.90;;;;;;10211649;29;20234;-81
2023/04/10 03:18:14;;;;;;;22.90;14.30;;;3.30;99.90;;;;;;10173941;29;20287;-81
2023/04/10 03:23:20;;;;;;;32.80;20.17;;;3.80;99.90;;;;;;10173018;29;20254;-81
2023/04/10 03:28:23;;;;;;;31.50;19.33;;;4.00;99.90;;;;;;10170805;29;20204;-81
2023/04/10 03:33:25;;;;;;;33.43;20.63;;;3.80;99.90;;;;;;10171298;29;20243;-81
2023/04/10 03:38:28;;;;;;;25.70;18.53;;;3.50;99.90;;;;;;10184709;29;20304;-81
2023/04/10 03:43:31;;;;;;;26.57;17.57;;;3.40;99.90;;;;;;10227125;29;20267;-81
2023/04/10 03:48:36;;;;;;;34.00;20.10;;;3.50;99.90;;;;;;10207140;29;20638;-82
2023/04/10 03:53:38;;;;;;;31.20;19.57;;;4.00;99.90;;;;;;10210480;29;20304;-81
2023/04/10 03:58:45;;;;;;;30.50;19.83;;;4.00;99.90;;;;;;10208549;29;20211;-81
2023/04/10 04:03:48;;;;;;;18.83;14.33;;;4.00;99.90;;;;;;10193337;29;20298;-81
2023/04/10 04:09:10;;;;;;;32.13;20.53;;;4.10;99.90;;;;;;10209900;29;20238;-81
2023/04/10 04:14:24;;;;;;;28.17;17.40;;;3.90;99.90;;;;;;10208245;29;20242;-81
2023/04/10 04:19:49;;;;;;;25.60;18.37;;;3.70;99.90;;;;;;10067494;29;20246;-81
2023/04/10 04:25:10;;;;;;;30.77;19.67;;;3.80;99.90;;;;;;10085531;29;20267;-81
2023/04/10 04:30:31;;;;;;;27.40;18.33;;;3.70;99.90;;;;;;10086299;29;20702;-81
2023/04/10 04:35:46;;;;;;;25.13;19.37;;;3.70;99.90;;;;;;10087492;29;20228;-81
2023/04/10 04:41:03;;;;;;;25.67;17.67;;;3.70;99.90;;;;;;10086037;29;20653;-81
2023/04/10 04:46:18;;;;;;;27.83;19.23;;;3.80;99.90;;;;;;10069982;29;20264;-81
2023/04/10 04:51:39;;;;;;;20.23;12.20;;;4.10;99.90;;;;;;10088685;29;20245;-81
2023/04/10 04:57:00;;;;;;;30.60;20.70;;;4.20;99.90;;;;;;10170303;29;20310;-81
2023/04/10 05:02:07;;;;;;;26.37;18.77;;;4.30;99.90;;;;;;10188350;29;20262;-81
2023/04/10 05:07:36;;;;;;;26.73;16.67;;;4.60;99.90;;;;;;10171445;29;20230;-81
2023/04/10 05:12:57;;;;;;;21.77;15.57;;;4.60;99.90;;;;;;10193100;29;20238;-81
2023/04/10 05:18:12;;;;;;;19.30;14.20;;;5.00;99.90;;;;;;10186045;29;20298;-81
2023/04/10 05:23:34;;;;;;;21.97;14.47;;;5.30;99.90;;;;;;10181418;29;20649;-81
2023/04/10 05:28:49;;;;;;;16.47;11.70;;;5.50;99.90;;;;;;10199238;29;20229;-81
2023/04/10 05:33:58;;;;;;;19.07;12.90;;;5.30;99.90;;;;;;10193540;29;20672;-81
2023/04/10 05:39:09;;;;;;;29.73;20.30;;;5.60;99.90;;;;;;10203336;29;20670;-81
2023/04/10 05:44:30;;;;;;;24.53;18.27;;;5.90;99.90;;;;;;10166874;29;20288;-81
2023/04/10 05:49:37;;;;;;;28.47;19.30;;;5.80;99.90;;;;;;10184631;29;20240;-81
2023/04/10 05:55:05;;;;;;;30.73;21.07;;;5.80;99.90;;;;;;10161822;29;20232;-81
2023/04/10 06:00:16;;;;;;;28.83;18.67;;;6.00;99.90;;;;;;10207932;29;20239;-81
2023/04/10 06:05:40;;;;;;;25.80;17.90;;;6.30;99.90;;;;;;10198923;29;20645;-81
2023/04/10 06:10:43;;;;;;;36.03;22.47;;;6.40;99.90;;;;;;10206009;29;20693;-81
2023/04/10 06:15:46;;;;;;;27.13;17.70;;;6.60;99.90;;;;;;10169565;29;20243;-81
2023/04/10 06:20:50;;;;;;;21.77;15.03;;;6.50;99.90;;;;;;10166646;29;20297;-81
2023/04/10 06:25:54;;;;;;;22.67;16.03;;;6.80;99.90;;;;;;10197289;29;20317;-81
2023/04/10 06:30:57;;;;;;;20.47;14.50;;;7.00;99.90;;;;;;10194089;29;20360;-81
2023/04/10 06:36:06;;;;;;;21.87;15.90;;;7.10;99.90;;;;;;10184823;29;20287;-81
2023/04/10 06:41:15;;;;;;;23.67;16.07;;;7.30;99.90;;;;;;10169725;29;20228;-81
2023/04/10 06:46:18;;;;;;;21.17;14.57;;;7.40;99.90;;;;;;10187412;29;20251;-81
2023/04/10 06:51:21;;;;;;;20.67;15.50;;;7.40;99.90;;;;;;10177896;29;20627;-81
2023/04/10 06:56:23;;;;;;;21.43;15.33;;;7.80;99.90;;;;;;10211754;29;20937;-81
2023/04/10 07:01:26;;;;;;;23.43;15.50;;;8.10;99.90;;;;;;10208900;29;20242;-81
2023/04/10 07:06:28;;;;;;;13.37;9.87;;;8.20;99.90;;;;;;10252792;29;20257;-81
2023/04/10 07:11:31;;;;;;;13.43;9.10;;;8.60;99.90;;;;;;10225278;29;20297;-81
2023/04/10 07:16:33;;;;;;;21.53;14.63;;;9.00;99.90;;;;;;10212768;29;20239;-81
2023/04/10 07:21:36;;;;;;;26.57;16.93;;;9.10;99.90;;;;;;10211946;29;20270;-81
2023/04/10 07:26:38;;;;;;;25.40;17.10;;;9.30;99.90;;;;;;10209663;29;20813;-81
2023/04/10 07:31:41;;;;;;;26.07;16.10;;;9.50;99.90;;;;;;10217165;29;20238;-81
2023/04/10 07:36:44;;;;;;;21.10;13.97;;;9.80;99.90;;;;;;10203555;29;20781;-81
2023/04/10 07:41:47;;;;;;;17.80;12.13;;;10.10;99.90;;;;;;10170254;29;20413;-82
2023/04/10 07:46:51;;;;;;;13.27;10.30;;;;;;;;;;10171047;29;20266;-81
2023/04/10 07:51:53;;;;;;;31.77;17.70;;;11.00;99.90;;;;;;10206645;29;20294;-81
2023/04/10 07:56:56;;;;;;;31.17;18.57;;;11.30;99.90;;;;;;10196104;29;20235;-81
2023/04/10 08:01:58;;;;;;;38.77;24.93;;;11.40;99.90;;;;;;10176803;29;20812;-81
2023/04/10 08:07:01;;;;;;;37.73;22.50;;;11.10;99.90;;;;;;10202977;29;20279;-81
2023/04/10 08:12:04;;;;;;;28.13;18.17;;;11.40;99.90;;;;;;10191473;29;20494;-82
2023/04/10 08:17:13;;;;;;;36.47;23.90;;;11.50;99.90;;;;;;10208953;29;20285;-83
2023/04/10 08:22:15;;;;;;;30.07;17.50;;;11.60;99.90;;;;;;10209261;29;20238;-82
2023/04/10 08:27:18;;;;;;;35.40;21.10;;;11.70;99.90;;;;;;10208528;29;20771;-83
2023/04/10 08:32:21;;;;;;;16.83;10.40;;;12.10;99.90;;;;;;10206545;29;20290;-82
2023/04/10 08:37:25;;;;;;;10.00;8.27;;;;;;;;;;10196800;29;20676;-81
2023/04/10 08:42:28;;;;;;;17.77;11.57;;;12.90;99.90;;;;;;10201176;29;20310;-81
2023/04/10 08:47:35;;;;;;;34.53;20.53;;;13.00;99.90;;;;;;10172235;29;20873;-82
2023/04/10 08:52:42;;;;;;;26.83;17.83;;;13.00;99.90;;;;;;10185722;29;20662;-82
2023/04/10 08:57:45;;;;;;;25.30;16.10;;;12.80;99.90;;;;;;10184533;29;20235;-82
2023/04/10 09:03:03;;;;;;;31.93;17.80;;;13.00;99.90;;;;;;10201668;29;20274;-82
2023/04/10 09:08:08;;;;;;;15.27;10.57;;;13.00;99.90;;;;;;10182542;29;20649;-80
2023/04/10 09:13:10;;;;;;;12.97;9.20;;;13.20;99.90;;;;;;10191554;29;20278;-80
2023/04/10 09:18:13;;;;;;;10.60;8.37;;;;;;;;;;10174729;29;20259;-81
2023/04/10 09:23:22;;;;;;;13.07;9.33;;;13.80;99.90;;;;;;10180267;29;20289;-79
2023/04/10 09:28:25;;;;;;;19.77;13.83;;;14.00;99.90;;;;;;10224292;29;20289;-79
2023/04/10 09:33:29;;;;;;;13.97;9.33;;;14.10;99.90;;;;;;10223466;29;20278;-79
2023/04/10 09:38:31;;;;;;;17.60;12.57;;;14.20;99.90;;;;;;10207629;29;20289;-79
2023/04/10 09:43:34;;;;;;;15.70;11.33;;;14.40;99.90;;;;;;10202754;29;20263;-80
2023/04/10 09:48:36;;;;;;;12.63;9.67;;;14.50;99.90;;;;;;10191776;29;20223;-80
2023/04/10 09:53:49;;;;;;;18.30;12.97;;;14.50;99.90;;;;;;10170247;29;20235;-80
2023/04/10 09:58:55;;;;;;;11.93;10.00;;;14.50;99.90;;;;;;10192279;29;20238;-80
2023/04/10 10:04:02;;;;;;;12.57;9.30;;;14.70;99.90;;;;;;10169722;29;20313;-80
2023/04/10 10:09:05;;;;;;;8.07;6.17;;;14.80;99.90;;;;;;10183051;29;20239;-81
2023/04/10 10:14:14;;;;;;;12.33;8.27;;;14.90;99.90;;;;;;10187312;29;20235;-80
2023/04/10 10:19:48;;;;;;;11.20;8.17;;;15.00;99.90;;;;;;10195109;29;20320;-81
2023/04/10 10:24:55;;;;;;;23.73;16.90;;;14.90;99.60;;;;;;10190385;29;20725;-82
2023/04/10 10:29:59;;;;;;;16.10;8.50;;;15.00;98.80;;;;;;10195638;29;20275;-84
2023/04/10 10:35:10;;;;;;;30.60;21.37;;;15.00;99.90;;;;;;10185297;29;20246;-84
2023/04/10 10:40:23;;;;;;;35.53;22.60;;;15.00;99.90;;;;;;10181435;29;20235;-85
2023/04/10 10:45:33;;;;;;;23.40;11.60;;;15.00;99.90;;;;;;10196436;29;20898;-83
2023/04/10 10:50:57;;;;;;;21.97;12.43;;;15.00;99.90;;;;;;10173174;29;20239;-83
2023/04/10 10:56:33;;;;;;;33.07;23.47;;;15.10;99.90;;;;;;10198339;29;20281;-83
2023/04/10 11:01:36;;;;;;;31.27;18.97;;;14.90;99.90;;;;;;10073672;29;20314;-82
2023/04/10 11:06:50;;;;;;;37.00;21.37;;;15.00;99.90;;;;;;10089103;29;20333;-83
2023/04/10 11:11:59;;;;;;;37.60;22.67;;;15.10;99.90;;;;;;10221744;23;20394;-88
2023/04/10 11:17:01;;;;;;;33.57;21.17;;;15.30;99.90;;;;;;10226336;28;20254;-94
2023/04/10 11:22:07;;;;;;;32.83;19.83;;;15.30;99.90;;;;;;10215476;29;20596;-94
2023/04/10 11:27:37;;;;;;;29.80;19.73;;;15.40;99.90;;;;;;10214546;29;20285;-94
2023/04/10 11:32:41;;;;;;;30.43;19.90;;;15.40;99.90;;;;;;10213431;29;20262;-94
2023/04/10 11:37:43;;;;;;;30.17;21.00;;;15.40;99.90;;;;;;10213765;29;20286;-94
2023/04/10 11:42:46;;;;;;;28.13;20.27;;;15.40;99.90;;;;;;10214511;29;20680;-94
2023/04/10 11:47:53;;;;;;;32.90;21.70;;;15.40;99.90;;;;;;10214024;29;20223;-93
2023/04/10 11:52:56;;;;;;;25.50;18.23;;;15.40;99.90;;;;;;10213222;29;20756;-93
2023/04/10 11:57:58;;;;;;;24.90;18.00;;;15.50;99.90;;;;;;10213775;29;20227;-94
2023/04/10 12:03:01;;;;;;;28.57;19.10;;;15.50;99.80;;;;;;10212814;29;20235;-95
2023/04/10 12:08:05;;;;;;;25.97;19.67;;;15.60;99.40;;;;;;10213269;29;20247;-94
2023/04/10 12:13:24;;;;;;;20.00;13.73;;;15.60;99.30;;;;;;10212543;29;20211;-95
2023/04/10 12:18:28;;;;;;;27.07;16.30;;;15.60;97.20;;;;;;10212625;29;20199;-93
2023/04/10 12:23:30;;;;;;;10.10;8.00;;;15.60;96.00;;;;;;10213101;29;20199;-94
2023/04/10 12:28:33;;;;;;;18.40;12.93;;;15.60;92.90;;;;;;10211333;29;20902;-95
2023/04/10 12:33:36;;;;;;;22.40;13.77;;;15.60;93.60;;;;;;10210941;29;20736;-95
2023/04/10 12:38:43;;;;;;;20.83;14.07;;;15.60;95.10;;;;;;10212747;29;20195;-94
2023/04/10 12:43:46;;;;;;;23.80;15.23;;;15.70;94.70;;;;;;10210609;29;20267;-94
2023/04/10 12:48:49;;;;;;;18.00;12.73;;;15.70;95.10;;;;;;10210380;29;20294;-94
2023/04/10 12:53:51;;;;;;;15.07;11.53;;;15.80;95.70;;;;;;10211590;29;20254;-94
2023/04/10 12:59:06;;;;;;;20.53;14.20;;;15.80;96.30;;;;;;10210277;29;20206;-95
2023/04/10 13:04:08;;;;;;;15.20;11.73;;;15.80;95.30;;;;;;10210065;29;20250;-94
2023/04/10 13:09:16;;;;;;;13.57;10.57;;;15.80;95.10;;;;;;10216788;29;20341;-90
2023/04/10 13:14:18;;;;;;;17.07;8.63;;;15.80;94.50;;;;;;10209959;29;21037;-87
2023/04/10 13:19:21;;;;;;;12.90;10.30;;;15.90;93.00;;;;;;10238577;29;20281;-96
2023/04/10 13:24:23;;;;;;;12.97;9.97;;;15.90;92.60;;;;;;10279388;28;20198;-96
2023/04/10 13:40:07;;;;;;;16.93;12.80;;;16.00;92.60;;;;;;12921933;22;1517096;-96
2023/04/10 13:45:10;;;;;;;12.37;9.40;;;15.90;90.30;;;;;;12916706;23;20183;-96
2023/04/10 13:50:13;;;;;;;13.07;8.23;;;15.90;88.50;;;;;;12903264;23;20162;-96
2023/04/10 13:55:17;;;;;;;14.30;10.73;;;15.80;92.20;;;;;;12910628;23;20178;-96
2023/04/10 14:00:19;;;;;;;12.47;10.23;;;15.80;90.80;;;;;;12865930;23;20166;-92
2023/04/10 14:05:22;;;;;;;19.10;14.20;;;15.80;91.50;;;;;;12869752;23;20213;-96
2023/04/10 14:10:25;;;;;;;13.23;8.77;;;15.80;91.70;;;;;;12893130;23;20522;-96
2023/04/10 14:15:28;;;;;;;14.70;10.50;;;15.90;93.20;;;;;;12912073;23;20167;-95
2023/04/10 14:20:31;;;;;;;16.73;12.70;;;15.80;93.90;;;;;;12906739;23;20185;-96
2023/04/10 14:25:36;;;;;;;15.70;10.13;;;15.80;94.10;;;;;;12892429;23;20187;-95
2023/04/10 14:30:39;;;;;;;14.07;10.60;;;15.70;92.40;;;;;;12872961;23;20507;-96
2023/04/10 14:35:43;;;;;;;13.10;9.53;;;15.80;93.90;;;;;;12893284;23;20174;-96
2023/04/10 14:40:48;;;;;;;11.30;8.27;;;15.70;94.00;;;;;;12883049;23;20187;-93
2023/04/10 14:45:51;;;;;;;11.93;9.07;;;15.70;94.50;;;;;;12863112;23;20213;-96
2023/04/10 14:50:55;;;;;;;13.70;10.23;;;15.70;92.00;;;;;;12838218;23;20186;-96
2023/04/10 14:55:58;;;;;;;12.83;8.47;;;15.70;92.80;;;;;;12840234;23;20171;-95
2023/04/10 15:01:00;;;;;;;10.73;8.67;;;15.70;92.30;;;;;;12866253;23;20174;-96
2023/04/10 15:06:03;;;;;;;17.13;10.77;;;15.80;92.70;;;;;;12883642;23;20187;-95
2023/04/10 15:11:05;;;;;;;7.97;7.00;;;15.70;90.90;;;;;;12876570;23;20169;-86
2023/04/10 15:16:08;;;;;;;11.37;9.47;;;15.70;93.20;;;;;;12828678;23;20203;-94
2023/04/10 15:21:11;;;;;;;9.60;7.50;;;15.60;90.10;;;;;;12861996;23;20234;-94
2023/04/10 15:26:14;;;;;;;11.17;6.80;;;15.70;91.60;;;;;;12834138;23;20195;-95
2023/04/10 15:31:21;;;;;;;9.37;6.70;;;15.70;91.40;;;;;;12833809;23;20171;-95
2023/04/10 15:36:24;;;;;;;11.47;7.67;;;15.70;91.40;;;;;;12836487;23;20495;-94
2023/04/10 15:41:27;;;;;;;12.07;7.93;;;15.70;90.70;;;;;;12861665;23;20237;-94
2023/04/10 15:46:31;;;;;;;8.80;6.90;;;15.70;91.40;;;;;;12807910;23;20266;-94
2023/04/10 15:51:34;;;;;;;8.13;6.33;;;15.70;91.80;;;;;;12859736;23;20177;-95
2023/04/10 15:56:36;;;;;;;9.40;6.83;;;15.70;91.90;;;;;;12834389;23;20733;-95
2023/04/10 16:01:39;;;;;;;12.03;8.37;;;15.70;92.10;;;;;;12867205;23;20222;-93
2023/04/10 16:06:42;;;;;;;11.07;9.50;;;15.70;91.10;;;;;;12835527;23;20194;-94
2023/04/10 16:11:44;;;;;;;8.67;7.43;;;15.60;91.00;;;;;;12864587;23;20511;-94
2023/04/10 16:16:47;;;;;;;8.77;7.87;;;15.50;92.60;;;;;;12869814;23;20175;-95
2023/04/10 16:21:50;;;;;;;11.23;7.90;;;15.50;93.60;;;;;;12883206;23;20190;-94
2023/04/10 16:26:53;;;;;;;11.13;9.07;;;15.40;93.10;;;;;;12874696;23;20245;-94
2023/04/10 16:31:56;;;;;;;10.23;8.90;;;15.30;93.50;;;;;;12836318;23;20163;-94
2023/04/10 16:36:59;;;;;;;11.00;8.73;;;15.10;93.60;;;;;;12860382;23;20700;-95
2023/04/10 16:42:02;;;;;;;8.90;8.00;;;15.00;94.40;;;;;;12862464;23;20188;-95
2023/04/10 16:47:04;;;;;;;9.57;8.57;;;14.90;95.00;;;;;;12858488;23;20195;-94
2023/04/10 16:52:07;;;;;;;11.47;8.50;;;14.70;95.00;;;;;;12860492;23;20172;-94
2023/04/10 16:57:10;;;;;;;16.27;11.43;;;14.60;95.80;;;;;;12832990;23;20247;-94
2023/04/10 17:02:12;;;;;;;13.60;10.83;;;14.40;95.80;;;;;;12831622;23;20206;-94
2023/04/10 17:07:15;;;;;;;16.63;11.50;;;14.20;96.10;;;;;;12876731;23;20186;-94
2023/04/10 17:12:17;;;;;;;12.33;9.77;;;14.00;96.50;;;;;;12859045;23;20175;-93
2023/04/10 17:17:20;;;;;;;13.70;11.03;;;13.70;96.50;;;;;;12874988;23;20474;-95
2023/04/10 17:22:22;;;;;;;11.80;9.67;;;13.40;96.70;;;;;;12845438;23;20179;-95
2023/04/10 17:27:25;;;;;;;16.67;12.47;;;13.10;97.20;;;;;;12871964;23;20210;-94
2023/04/10 17:32:27;;;;;;;11.67;10.47;;;12.80;98.10;;;;;;12873880;23;20210;-94
2023/04/10 17:37:30;;;;;;;15.93;12.20;;;12.50;99.80;;;;;;12840738;23;20430;-95
2023/04/10 17:42:32;;;;;;;19.13;13.73;;;12.20;99.90;;;;;;12871233;23;20197;-95
2023/04/10 17:47:35;;;;;;;17.33;13.17;;;11.90;99.90;;;;;;12881827;23;20187;-95
2023/04/10 17:53:13;;;;;;;18.10;13.23;;;11.40;99.90;;;;;;12894357;23;20262;-96
2023/04/10 17:58:40;;;;;;;16.87;12.97;;;11.00;99.90;;;;;;12903652;23;20183;-96
2023/04/10 18:03:45;;;;;;;19.67;12.80;;;10.80;99.90;;;;;;12888718;23;20246;-96
2023/04/10 18:08:49;;;;;;;18.77;14.90;;;10.50;99.90;;;;;;12859966;23;20195;-96
2023/04/10 18:13:57;;;;;;;24.70;16.13;;;10.50;99.90;;;;;;12817117;23;20206;-95
2023/04/10 18:19:00;;;;;;;20.30;15.50;;;;;;;;;;12891040;23;20225;-94
2023/04/10 18:24:04;;;;;;;20.97;15.77;;;;;;;;;;12903358;23;20171;-96
2023/04/10 18:29:06;;;;;;;22.93;16.63;;;10.40;99.90;;;;;;12895996;23;20194;-94
2023/04/10 18:34:09;;;;;;;26.70;17.77;;;9.90;99.90;;;;;;12875401;23;20175;-95
2023/04/10 18:39:12;;;;;;;39.53;25.20;;;9.80;99.90;;;;;;12849242;23;20206;-95
2023/04/10 18:44:14;;;;;;;38.70;25.80;;;9.50;99.90;;;;;;12878596;23;20502;-95
2023/04/10 18:49:17;;;;;;;41.83;26.20;;;9.10;99.90;;;;;;12872266;23;20272;-94
2023/04/10 18:54:19;;;;;;;34.87;23.93;;;8.50;99.90;;;;;;12850798;23;20206;-93
2023/04/10 18:59:22;;;;;;;31.03;21.70;;;8.40;99.90;;;;;;12885594;23;20201;-95
2023/04/10 19:04:25;;;;;;;28.03;19.33;;;8.20;99.90;;;;;;12854300;23;20543;-95
2023/04/10 19:09:27;;;;;;;15.63;11.30;;;8.20;99.90;;;;;;12876766;23;20198;-86
2023/04/10 19:14:30;;;;;;;33.90;22.90;;;8.50;99.90;;;;;;12876685;23;20651;-92
2023/04/10 19:19:36;;;;;;;38.27;25.23;;;9.10;99.90;;;;;;12801617;23;20218;-92
2023/04/10 19:24:51;;;;;;;38.53;27.17;;;9.10;99.90;;;;;;12802457;23;20176;-92
2023/04/10 19:29:56;;;;;;;50.40;31.90;;;8.90;99.90;;;;;;12801989;23;20195;-93
2023/04/10 19:35:02;;;;;;;49.83;33.27;;;8.50;99.90;;;;;;12784998;23;20666;-94
2023/04/10 19:40:08;;;;;;;56.47;35.53;;;8.10;99.90;;;;;;12776386;23;20167;-94
2023/04/10 19:45:16;;;;;;;60.90;37.37;;;8.10;99.90;;;;;;12726779;23;20168;-94
2023/04/10 19:50:23;;;;;;;60.60;38.23;;;7.80;99.90;;;;;;12843553;23;20188;-94
2023/04/10 19:55:26;;;;;;;55.80;34.20;;;7.70;99.90;;;;;;12830715;23;20226;-94
2023/04/10 20:00:33;;;;;;;48.33;31.80;;;7.70;99.90;;;;;;12801516;23;20214;-94
2023/04/10 20:05:38;;;;;;;42.77;28.03;;;7.70;99.90;;;;;;12778918;23;20168;-94
2023/04/10 20:10:44;;;;;;;56.93;40.57;;;7.60;99.90;;;;;;12802001;23;20183;-94
2023/04/10 20:15:49;;;;;;;64.03;39.53;;;7.70;99.90;;;;;;12800599;23;20200;-95
2023/04/10 20:21:03;;;;;;;48.03;25.87;;;7.60;99.90;;;;;;12800063;23;20167;-94
2023/04/10 20:26:07;;;;;;;35.20;23.80;;;7.70;99.90;;;;;;12813496;23;20191;-94
2023/04/10 20:31:18;;;;;;;57.13;32.00;;;7.90;99.90;;;;;;12801973;23;20674;-95
2023/04/10 20:36:21;;;;;;;58.37;32.97;;;7.90;99.90;;;;;;12798676;23;20168;-95
2023/04/10 20:41:30;;;;;;;47.13;29.73;;;7.80;99.90;;;;;;12801488;23;20230;-95
2023/04/10 20:54:00;;;;;;;42.87;26.70;;;7.70;99.90;;;;;;12822456;23;20136;-96
2023/04/10 20:59:04;;;;;;;35.63;22.33;;;7.80;99.90;;;;;;12800298;23;20194;-96
2023/04/10 21:40:13;;;;;;;38.77;25.23;;;7.30;99.90;;;;;;12835196;22;20199;-96
